createdAt,value
2023-05-24T00:01:13.312Z,11.10
2023-05-24T00:03:40.556Z,11.00
2023-05-24T00:06:08.888Z,11.00
2023-05-24T00:08:36.283Z,11.00
2023-05-24T00:11:03.350Z,10.90
2023-05-24T00:13:32.586Z,10.90
2023-05-24T00:15:59.635Z,10.90
2023-05-24T00:18:27.016Z,10.80
2023-05-24T00:20:59.856Z,10.80
2023-05-24T00:23:27.121Z,10.70
2023-05-24T00:25:54.485Z,10.70
2023-05-24T00:28:21.945Z,10.70
2023-05-24T00:30:49.357Z,10.70
2023-05-24T00:33:16.566Z,10.60
2023-05-24T00:35:44.194Z,10.60
2023-05-24T00:38:11.664Z,10.60
2023-05-24T00:40:40.087Z,10.60
2023-05-24T00:43:08.075Z,10.60
2023-05-24T00:45:35.469Z,10.50
2023-05-24T00:48:05.683Z,10.50
2023-05-24T00:50:36.686Z,10.50
2023-05-24T00:53:04.904Z,10.50
2023-05-24T00:55:35.532Z,10.40
2023-05-24T00:58:04.170Z,10.40
2023-05-24T01:00:32.323Z,10.40
2023-05-24T01:03:01.670Z,10.30
2023-05-24T01:05:30.483Z,10.30
2023-05-24T01:08:30.424Z,10.30
2023-05-24T01:14:28.268Z,10.30
2023-05-24T01:17:11.352Z,10.20
2023-05-24T01:20:02.625Z,10.20
2023-05-24T01:23:06.214Z,10.30
2023-05-24T01:26:37.381Z,10.00
2023-05-24T01:29:05.421Z,10.00
2023-05-24T01:31:36.297Z,9.90
2023-05-24T01:34:05.107Z,9.90
2023-05-24T01:36:33.627Z,9.90
2023-05-24T01:39:01.115Z,9.90
2023-05-24T01:42:02.563Z,9.90
2023-05-24T01:44:43.724Z,9.80
2023-05-24T01:47:29.165Z,9.80
2023-05-24T01:50:13.711Z,9.80
2023-05-24T01:52:44.357Z,9.70
2023-05-24T01:55:17.394Z,9.70
2023-05-24T01:57:47.070Z,9.70
2023-05-24T02:00:17.001Z,9.60
2023-05-24T02:02:46.707Z,9.60
2023-05-24T02:07:55.838Z,9.70
2023-05-24T02:10:25.200Z,9.60
2023-05-24T02:12:57.496Z,9.40
2023-05-24T02:15:24.699Z,9.40
2023-05-24T02:17:54.785Z,9.30
2023-05-24T02:20:23.193Z,9.30
2023-05-24T02:22:50.527Z,9.20
2023-05-24T02:25:18.135Z,9.20
2023-05-24T02:27:47.354Z,9.10
2023-05-24T02:30:14.578Z,9.10
2023-05-24T02:32:43.637Z,9.00
2023-05-24T02:35:12.047Z,9.00
2023-05-24T02:37:39.308Z,8.90
2023-05-24T02:40:07.347Z,8.90
2023-05-24T02:42:34.903Z,8.90
2023-05-24T02:45:07.194Z,8.80
2023-05-24T02:47:34.996Z,8.80
2023-05-24T02:50:02.473Z,8.80
2023-05-24T02:52:29.762Z,8.80
2023-05-24T02:54:57.190Z,8.90
2023-05-24T02:57:24.796Z,8.70
2023-05-24T03:05:19.686Z,8.70
2023-05-24T03:07:47.366Z,8.50
2023-05-24T03:10:16.219Z,8.50
2023-05-24T03:12:45.525Z,8.50
2023-05-24T03:15:13.032Z,8.40
2023-05-24T03:17:41.169Z,8.40
2023-05-24T03:20:08.979Z,8.40
2023-05-24T03:22:36.253Z,8.30
2023-05-24T03:25:05.030Z,8.30
2023-05-24T03:27:32.819Z,8.30
2023-05-24T03:30:02.054Z,8.30
2023-05-24T03:32:34.325Z,8.30
2023-05-24T03:35:06.480Z,8.30
2023-05-24T03:37:40.453Z,8.20
2023-05-24T03:40:08.598Z,8.20
2023-05-24T03:45:47.274Z,8.00
2023-05-24T03:48:16.733Z,8.10
2023-05-24T04:02:42.462Z,8.10
2023-05-24T04:05:11.522Z,8.10
2023-05-24T04:07:39.907Z,8.20
2023-05-24T04:10:09.513Z,8.20
2023-05-24T04:12:38.801Z,8.20
2023-05-24T04:15:10.288Z,8.20
2023-05-24T04:17:38.910Z,8.30
2023-05-24T04:20:07.421Z,8.50
2023-05-24T04:22:36.222Z,8.40
2023-05-24T04:25:05.278Z,8.40
2023-05-24T04:27:33.267Z,8.40
2023-05-24T04:30:02.297Z,8.40
2023-05-24T04:32:30.642Z,8.50
2023-05-24T04:34:58.382Z,8.50
2023-05-24T04:37:34.433Z,8.50
2023-05-24T04:40:11.872Z,8.60
2023-05-24T04:42:39.437Z,8.60
2023-05-24T04:45:07.255Z,8.70
2023-05-24T04:47:34.660Z,8.80
2023-05-24T04:50:02.384Z,8.80
2023-05-24T04:52:55.842Z,9.00
2023-05-24T04:55:23.330Z,9.10
2023-05-24T04:57:50.595Z,9.00
2023-05-24T05:00:18.457Z,9.00
2023-05-24T05:02:46.242Z,9.10
2023-05-24T05:05:17.345Z,9.20
2023-05-24T05:07:44.523Z,9.10
2023-05-24T05:10:11.813Z,9.20
2023-05-24T05:12:42.129Z,9.20
2023-05-24T05:15:10.058Z,9.30
2023-05-24T05:17:37.715Z,9.30
2023-05-24T05:20:06.119Z,9.50
2023-05-24T05:22:41.749Z,9.40
2023-05-24T05:25:14.035Z,9.40
2023-05-24T05:27:41.450Z,9.70
2023-05-24T05:30:12.199Z,9.60
2023-05-24T05:35:36.952Z,9.80
2023-05-24T05:38:04.164Z,9.90
2023-05-24T05:40:32.036Z,10.00
2023-05-24T05:42:59.271Z,10.00
2023-05-24T05:45:26.721Z,10.10
2023-05-24T05:47:54.026Z,10.00
2023-05-24T05:50:21.037Z,10.00
2023-05-24T05:52:48.345Z,10.10
2023-05-24T05:55:15.473Z,10.20
2023-05-24T05:57:43.358Z,10.20
2023-05-24T06:00:14.079Z,10.40
2023-05-24T06:02:43.761Z,10.50
2023-05-24T06:05:12.932Z,10.60
2023-05-24T06:07:41.320Z,10.70
2023-05-24T06:10:08.621Z,10.80
2023-05-24T06:12:35.903Z,10.80
2023-05-24T06:15:03.038Z,10.90
2023-05-24T06:17:30.301Z,11.10
2023-05-24T06:19:57.768Z,11.10
2023-05-24T06:22:24.745Z,11.20
2023-05-24T06:24:52.507Z,11.20
2023-05-24T06:27:22.018Z,11.30
2023-05-24T06:29:49.216Z,11.40
2023-05-24T06:32:17.769Z,11.40
2023-05-24T06:34:44.840Z,11.80
2023-05-24T06:37:15.210Z,11.70
2023-05-24T06:39:42.365Z,11.80
2023-05-24T06:42:09.417Z,11.80
2023-05-24T06:44:37.024Z,12.00
2023-05-24T06:47:07.940Z,12.10
2023-05-24T06:49:35.578Z,12.20
2023-05-24T06:52:02.672Z,12.30
2023-05-24T06:54:29.674Z,12.30
2023-05-24T06:56:57.003Z,12.40
2023-05-24T06:59:24.042Z,12.50
2023-05-24T07:01:57.259Z,12.50
2023-05-24T07:04:28.730Z,12.50
2023-05-24T07:06:55.856Z,12.60
2023-05-24T07:09:22.822Z,12.80
2023-05-24T07:11:51.044Z,12.80
2023-05-24T07:14:18.040Z,12.80
2023-05-24T07:16:45.269Z,12.90
2023-05-24T07:19:13.804Z,13.00
2023-05-24T07:21:41.321Z,13.20
2023-05-24T07:24:08.609Z,13.30
2023-05-24T07:26:35.719Z,13.40
2023-05-24T07:29:02.741Z,13.60
2023-05-24T07:31:32.793Z,13.80
2023-05-24T07:33:59.786Z,13.90
2023-05-24T07:36:27.147Z,14.00
2023-05-24T07:38:54.489Z,14.30
2023-05-24T07:41:30.335Z,14.50
2023-05-24T07:43:58.141Z,14.80
2023-05-24T07:46:25.267Z,14.90
2023-05-24T07:48:53.316Z,15.00
2023-05-24T07:51:21.703Z,15.00
2023-05-24T07:53:51.512Z,15.00
2023-05-24T07:56:18.647Z,15.10
2023-05-24T07:58:46.999Z,15.30
2023-05-24T08:01:14.825Z,15.20
2023-05-24T08:03:42.006Z,15.10
2023-05-24T08:06:10.177Z,15.30
2023-05-24T08:08:37.257Z,15.20
2023-05-24T08:11:04.294Z,15.40
2023-05-24T08:13:32.440Z,15.30
2023-05-24T08:15:59.401Z,15.20
2023-05-24T08:18:26.859Z,15.30
2023-05-24T08:20:53.917Z,15.20
2023-05-24T08:23:23.086Z,15.30
2023-05-24T08:25:50.093Z,15.30
2023-05-24T08:28:22.132Z,15.30
2023-05-24T08:30:49.879Z,15.50
2023-05-24T08:33:16.856Z,15.60
2023-05-24T08:35:46.938Z,15.70
2023-05-24T08:38:16.532Z,15.90
2023-05-24T08:40:43.740Z,15.80
2023-05-24T08:43:12.294Z,15.90
2023-05-24T08:45:43.167Z,16.00
2023-05-24T08:48:14.671Z,16.10
2023-05-24T08:50:43.267Z,16.10
2023-05-24T08:53:11.660Z,16.40
2023-05-24T08:55:39.105Z,16.70
2023-05-24T08:58:06.939Z,16.90
2023-05-24T09:00:35.710Z,17.10
2023-05-24T09:03:05.206Z,17.10
2023-05-24T09:05:33.805Z,17.30
2023-05-24T09:08:03.829Z,17.50
2023-05-24T09:10:44.998Z,17.40
2023-05-24T09:13:25.290Z,17.50
2023-05-24T09:15:53.909Z,17.50
2023-05-24T09:18:21.217Z,17.20
2023-05-24T09:20:48.435Z,17.10
2023-05-24T09:23:18.063Z,17.20
2023-05-24T09:25:46.213Z,17.20
2023-05-24T09:28:18.312Z,17.30
2023-05-24T09:31:07.340Z,17.30
2023-05-24T09:33:36.246Z,17.40
2023-05-24T09:36:05.365Z,17.40
2023-05-24T09:38:32.570Z,17.40
2023-05-24T09:41:04.951Z,17.40
2023-05-24T09:43:35.725Z,17.50
2023-05-24T09:46:06.059Z,17.90
2023-05-24T09:48:33.069Z,17.90
2023-05-24T09:51:07.649Z,17.80
2023-05-24T09:53:36.102Z,17.90
2023-05-24T09:56:10.210Z,17.90
2023-05-24T09:58:37.257Z,18.10
2023-05-24T10:01:11.054Z,18.10
2023-05-24T10:03:38.930Z,18.20
2023-05-24T10:06:10.805Z,18.20
2023-05-24T10:08:38.834Z,18.10
2023-05-24T10:11:06.198Z,18.30
2023-05-24T10:13:36.683Z,18.50
2023-05-24T10:16:04.996Z,18.90
2023-05-24T10:18:32.301Z,19.20
2023-05-24T10:21:02.041Z,19.40
2023-05-24T10:23:31.368Z,19.40
2023-05-24T10:26:11.391Z,19.50
2023-05-24T10:28:56.022Z,19.70
2023-05-24T10:31:39.234Z,20.20
2023-05-24T10:34:08.904Z,20.50
2023-05-24T10:36:40.187Z,20.80
2023-05-24T10:39:11.294Z,21.10
2023-05-24T10:41:42.345Z,21.10
2023-05-24T10:44:13.684Z,20.80
2023-05-24T10:47:09.997Z,21.10
2023-05-24T10:49:40.800Z,21.80
2023-05-24T10:52:10.164Z,21.90
2023-05-24T10:54:39.953Z,21.90
2023-05-24T10:57:12.545Z,21.60
2023-05-24T10:59:44.271Z,21.50
2023-05-24T11:02:15.364Z,21.50
2023-05-24T11:04:47.092Z,21.50
2023-05-24T11:07:17.215Z,21.60
2023-05-24T11:09:47.863Z,21.60
2023-05-24T11:12:17.867Z,21.40
2023-05-24T11:14:52.444Z,21.50
2023-05-24T11:17:22.755Z,21.50
2023-05-24T11:19:56.859Z,21.40
2023-05-24T11:22:27.179Z,21.30
2023-05-24T11:24:56.875Z,20.90
2023-05-24T11:27:24.598Z,21.10
2023-05-24T11:29:52.703Z,21.00
2023-05-24T11:32:25.240Z,20.60
2023-05-24T11:34:52.459Z,20.90
2023-05-24T11:37:26.305Z,21.30
2023-05-24T11:40:00.486Z,21.70
2023-05-24T11:42:29.348Z,21.40
2023-05-24T11:44:57.905Z,21.30
2023-05-24T11:47:25.195Z,21.80
2023-05-24T11:49:52.831Z,21.70
2023-05-24T11:52:21.415Z,21.70
2023-05-24T11:54:49.852Z,21.70
2023-05-24T11:57:19.520Z,22.00
2023-05-24T11:59:46.982Z,22.30
2023-05-24T12:02:14.623Z,22.50
2023-05-24T12:04:44.699Z,21.90
2023-05-24T12:07:15.514Z,21.90
2023-05-24T12:09:42.690Z,22.00
2023-05-24T12:12:10.118Z,21.80
2023-05-24T12:14:40.109Z,21.30
2023-05-24T12:17:17.292Z,21.30
2023-05-24T12:19:44.979Z,21.40
2023-05-24T12:22:12.446Z,21.60
2023-05-24T12:24:39.547Z,21.70
2023-05-24T12:27:08.255Z,21.30
2023-05-24T12:29:39.915Z,20.90
2023-05-24T12:32:12.815Z,20.80
2023-05-24T12:34:42.460Z,20.70
2023-05-24T12:37:13.003Z,20.50
2023-05-24T12:39:44.243Z,20.30
2023-05-24T12:42:15.337Z,20.40
2023-05-24T12:44:42.702Z,20.40
2023-05-24T12:47:10.004Z,20.40
2023-05-24T12:49:37.225Z,20.30
2023-05-24T12:52:04.513Z,19.90
2023-05-24T12:54:32.295Z,19.70
2023-05-24T12:57:00.665Z,19.60
2023-05-24T12:59:29.113Z,19.60
2023-05-24T13:01:58.034Z,19.60
2023-05-24T13:04:30.631Z,19.70
2023-05-24T13:06:57.749Z,19.60
2023-05-24T13:09:26.039Z,19.50
2023-05-24T13:11:54.329Z,19.40
2023-05-24T13:14:22.050Z,19.40
2023-05-24T13:16:49.636Z,19.20
2023-05-24T13:19:17.510Z,19.20
2023-05-24T13:21:45.092Z,19.30
2023-05-24T13:24:17.502Z,19.30
2023-05-24T13:26:45.520Z,19.40
2023-05-24T13:31:46.871Z,19.50
2023-05-24T13:34:14.012Z,19.70
2023-05-24T13:36:41.010Z,19.70
2023-05-24T13:39:14.913Z,19.70
2023-05-24T13:41:45.251Z,19.70
2023-05-24T13:44:16.916Z,19.50
2023-05-24T13:46:44.754Z,19.60
2023-05-24T13:49:13.261Z,19.60
2023-05-24T13:51:40.719Z,19.70
2023-05-24T13:54:08.430Z,19.60
2023-05-24T13:56:36.687Z,19.50
2023-05-24T13:59:05.556Z,19.30
2023-05-24T14:01:40.263Z,19.40
2023-05-24T14:04:08.241Z,19.50
2023-05-24T14:06:37.913Z,19.30
2023-05-24T14:09:11.144Z,19.00
2023-05-24T14:11:38.842Z,18.90
2023-05-24T14:14:57.852Z,19.00
2023-05-24T14:16:58.605Z,19.00
2023-05-24T14:19:25.726Z,18.90
2023-05-24T14:21:52.839Z,19.00
2023-05-24T14:24:21.223Z,19.30
2023-05-24T14:26:48.348Z,19.40
2023-05-24T14:29:15.521Z,19.30
2023-05-24T14:31:43.022Z,19.30
2023-05-24T14:34:13.454Z,19.40
2023-05-24T14:36:41.912Z,19.30
2023-05-24T14:39:10.247Z,19.20
2023-05-24T14:41:39.436Z,19.20
2023-05-24T14:44:07.123Z,19.30
2023-05-24T14:46:34.424Z,19.40
2023-05-24T14:49:11.536Z,19.80
2023-05-24T14:51:38.557Z,19.90
2023-05-24T14:54:07.392Z,20.00
2023-05-24T14:56:35.854Z,20.40
2023-05-24T14:59:05.143Z,20.70
2023-05-24T15:01:32.634Z,21.30
2023-05-24T15:03:59.691Z,22.30
2023-05-24T15:06:27.020Z,24.10
2023-05-24T15:08:56.190Z,26.70
2023-05-24T15:11:23.223Z,29.00
2023-05-24T15:13:56.226Z,30.00
2023-05-24T15:16:24.242Z,30.50
2023-05-24T15:18:52.040Z,30.90
2023-05-24T15:21:20.315Z,31.70
2023-05-24T15:23:47.800Z,32.60
2023-05-24T15:26:17.449Z,33.00
2023-05-24T15:28:44.619Z,33.20
2023-05-24T15:31:16.130Z,33.20
2023-05-24T15:33:43.484Z,33.70
2023-05-24T15:36:16.909Z,34.10
2023-05-24T15:38:44.001Z,34.40
2023-05-24T15:41:11.044Z,34.70
2023-05-24T15:43:38.047Z,35.30
2023-05-24T15:46:05.129Z,36.30
2023-05-24T15:48:32.192Z,36.50
2023-05-24T15:51:53.851Z,36.20
2023-05-24T15:53:46.866Z,34.70
2023-05-24T15:56:14.217Z,31.90
2023-05-24T15:58:41.368Z,29.30
2023-05-24T16:01:09.388Z,27.70
2023-05-24T16:03:38.184Z,26.10
2023-05-24T16:06:08.829Z,25.30
2023-05-24T16:08:36.025Z,24.40
2023-05-24T16:11:08.108Z,24.10
2023-05-24T16:13:35.329Z,23.60
2023-05-24T16:16:02.404Z,23.20
2023-05-24T16:18:33.936Z,22.90
2023-05-24T16:21:04.341Z,22.50
2023-05-24T16:23:31.396Z,22.10
2023-05-24T16:25:58.948Z,21.60
2023-05-24T16:28:27.263Z,21.10
2023-05-24T16:30:56.491Z,20.80
2023-05-24T16:33:24.953Z,20.70
2023-05-24T16:35:55.817Z,20.50
2023-05-24T16:38:24.457Z,20.40
2023-05-24T16:40:52.209Z,20.40
2023-05-24T16:43:19.381Z,20.40
2023-05-24T16:45:46.489Z,20.40
2023-05-24T16:48:14.621Z,20.20
2023-05-24T16:50:42.442Z,20.10
2023-05-24T16:53:09.805Z,20.20
2023-05-24T16:55:36.841Z,20.30
2023-05-24T16:58:04.193Z,20.40
2023-05-24T17:00:31.357Z,20.40
2023-05-24T17:03:00.338Z,20.50
2023-05-24T17:05:27.842Z,20.50
2023-05-24T17:07:56.299Z,20.70
2023-05-24T17:10:23.289Z,20.90
2023-05-24T17:12:51.593Z,20.90
2023-05-24T17:15:18.674Z,20.90
2023-05-24T17:17:45.730Z,21.80
2023-05-24T17:20:13.723Z,23.00
2023-05-24T17:22:41.896Z,24.40
2023-05-24T17:25:09.995Z,26.40
2023-05-24T17:27:37.042Z,27.20
2023-05-24T17:30:04.281Z,28.10
2023-05-24T17:32:35.397Z,28.50
2023-05-24T17:35:05.674Z,28.10
2023-05-24T17:37:32.940Z,27.50
2023-05-24T17:40:00.001Z,26.70
2023-05-24T17:42:27.013Z,26.10
2023-05-24T17:44:55.300Z,25.60
2023-05-24T17:47:22.357Z,25.10
2023-05-24T17:49:49.407Z,24.30
2023-05-24T17:52:17.297Z,24.00
2023-05-24T17:54:44.281Z,23.90
2023-05-24T17:57:11.487Z,23.60
2023-05-24T17:59:40.034Z,23.70
2023-05-24T18:02:07.097Z,23.90
2023-05-24T18:04:35.355Z,23.90
2023-05-24T18:07:03.786Z,24.20
2023-05-24T18:09:30.852Z,24.70
2023-05-24T18:11:57.874Z,25.40
2023-05-24T18:14:25.029Z,25.70
2023-05-24T18:16:52.098Z,25.40
2023-05-24T18:19:21.152Z,24.60
2023-05-24T18:21:49.682Z,23.80
2023-05-24T18:24:17.020Z,23.00
2023-05-24T18:26:46.447Z,22.40
2023-05-24T18:29:14.817Z,22.00
2023-05-24T18:31:41.909Z,21.60
2023-05-24T18:34:09.054Z,21.10
2023-05-24T18:36:37.214Z,20.60
2023-05-24T18:39:04.286Z,20.40
2023-05-24T18:41:31.314Z,20.10
2023-05-24T18:44:00.965Z,19.70
2023-05-24T18:46:31.022Z,19.60
2023-05-24T18:49:00.557Z,19.40
2023-05-24T18:51:27.648Z,19.30
2023-05-24T18:53:54.713Z,19.00
2023-05-24T18:56:21.969Z,18.90
2023-05-24T18:58:51.183Z,18.60
2023-05-24T19:01:19.771Z,18.50
2023-05-24T19:03:47.419Z,18.40
2023-05-24T19:06:14.873Z,18.30
2023-05-24T19:08:42.286Z,18.10
2023-05-24T19:11:11.350Z,17.90
2023-05-24T19:13:40.130Z,17.90
2023-05-24T19:16:07.226Z,17.80
2023-05-24T19:18:34.253Z,17.70
2023-05-24T19:21:04.457Z,17.60
2023-05-24T19:23:31.460Z,17.40
2023-05-24T19:25:58.533Z,17.30
2023-05-24T19:28:28.581Z,17.30
2023-05-24T19:30:56.312Z,17.10
2023-05-24T19:33:23.725Z,16.90
2023-05-24T19:35:51.777Z,16.80
2023-05-24T19:38:19.797Z,16.80
2023-05-24T19:40:48.571Z,16.70
2023-05-24T19:43:17.612Z,16.60
2023-05-24T19:45:45.243Z,16.40
2023-05-24T19:48:12.882Z,16.30
2023-05-24T19:50:41.023Z,16.20
2023-05-24T19:53:08.335Z,16.10
2023-05-24T19:55:36.798Z,16.00
2023-05-24T19:58:04.054Z,16.00
2023-05-24T20:00:32.181Z,15.90
2023-05-24T20:02:59.546Z,15.90
2023-05-24T20:05:26.714Z,15.90
2023-05-24T20:07:53.783Z,15.70
2023-05-24T20:10:20.893Z,15.70
2023-05-24T20:12:49.540Z,15.60
2023-05-24T20:15:18.279Z,15.50
2023-05-24T20:17:49.522Z,15.50
2023-05-24T20:20:16.745Z,15.50
2023-05-24T20:22:43.835Z,15.40
2023-05-24T20:25:10.978Z,15.30
2023-05-24T20:27:41.548Z,15.30
2023-05-24T20:30:09.839Z,15.20
2023-05-24T20:32:37.138Z,15.10
2023-05-24T20:35:04.696Z,15.00
2023-05-24T20:37:31.735Z,15.10
2023-05-24T20:40:00.700Z,15.00
2023-05-24T20:42:27.697Z,14.90
2023-05-24T20:44:54.792Z,14.90
2023-05-24T20:47:22.128Z,14.90
2023-05-24T20:49:49.122Z,14.90
2023-05-24T20:52:16.699Z,14.80
2023-05-24T20:54:44.057Z,14.70
2023-05-24T20:57:11.393Z,14.70
2023-05-24T20:59:38.350Z,14.70
2023-05-24T21:02:05.813Z,14.70
2023-05-24T21:04:36.131Z,14.60
2023-05-24T21:07:03.336Z,14.60
2023-05-24T21:09:30.711Z,14.50
2023-05-24T21:11:57.800Z,14.40
2023-05-24T21:14:26.758Z,14.40
2023-05-24T21:16:56.000Z,14.30
2023-05-24T21:19:23.328Z,14.30
2023-05-24T21:21:50.413Z,14.20
2023-05-24T21:24:17.907Z,14.20
2023-05-24T21:26:44.881Z,14.20
2023-05-24T21:29:13.345Z,14.20
2023-05-24T21:31:43.566Z,14.10
2023-05-24T21:34:11.153Z,14.10
2023-05-24T21:36:38.458Z,14.10
2023-05-24T21:39:08.601Z,14.00
2023-05-24T21:41:40.572Z,13.90
2023-05-24T21:44:09.221Z,14.00
2023-05-24T21:46:36.618Z,14.00
2023-05-24T21:49:03.810Z,13.80
2023-05-24T21:51:31.974Z,13.70
2023-05-24T21:53:58.981Z,13.70
2023-05-24T21:56:27.263Z,13.60
2023-05-24T21:58:54.789Z,13.50
2023-05-24T22:01:23.164Z,13.60
2023-05-24T22:03:50.684Z,13.50
2023-05-24T22:06:20.804Z,13.50
2023-05-24T22:08:48.030Z,13.50
2023-05-24T22:11:16.598Z,13.50
2023-05-24T22:13:44.660Z,13.50
2023-05-24T22:16:11.665Z,13.50
2023-05-24T22:18:38.965Z,13.60
2023-05-24T22:21:06.568Z,13.60
2023-05-24T22:23:33.596Z,13.70
2023-05-24T22:26:00.700Z,13.70
2023-05-24T22:28:29.022Z,13.60
2023-05-24T22:30:59.228Z,13.70
2023-05-24T22:33:26.285Z,13.60
2023-05-24T22:35:53.530Z,13.60
2023-05-24T22:38:20.519Z,13.60
2023-05-24T22:40:47.546Z,13.60
2023-05-24T22:43:14.579Z,13.60
2023-05-24T22:45:41.849Z,13.50
2023-05-24T22:48:11.988Z,13.50
2023-05-24T22:50:39.314Z,13.40
2023-05-24T22:53:06.294Z,13.40
2023-05-24T22:55:33.321Z,13.40
2023-05-24T22:58:00.434Z,13.30
2023-05-24T23:00:29.069Z,13.30
2023-05-24T23:02:56.068Z,13.30
2023-05-24T23:05:24.339Z,13.30
2023-05-24T23:07:52.527Z,13.20
2023-05-24T23:10:19.641Z,13.20
2023-05-24T23:12:46.908Z,13.10
2023-05-24T23:15:16.815Z,13.10
2023-05-24T23:17:44.512Z,13.10
2023-05-24T23:20:14.461Z,13.10
2023-05-24T23:22:41.647Z,13.00
2023-05-24T23:25:10.631Z,12.90
2023-05-24T23:27:37.659Z,12.80
2023-05-24T23:30:06.133Z,12.80
2023-05-24T23:32:33.268Z,12.80
2023-05-24T23:35:01.552Z,12.80
2023-05-24T23:37:29.794Z,12.70
2023-05-24T23:40:02.235Z,12.60
2023-05-24T23:42:29.346Z,12.60
2023-05-24T23:44:56.319Z,12.50
2023-05-24T23:47:23.324Z,12.50
2023-05-24T23:49:50.655Z,12.40
2023-05-24T23:52:17.681Z,12.50
2023-05-24T23:54:44.910Z,12.40
2023-05-24T23:57:12.106Z,12.30
2023-05-24T23:59:39.546Z,12.20
